Time;durP1;ratioP1;P1;durP2;ratioP2;P2;SDS_P1;SDS_P2;PMS_P1;PMS_P2;Temp;Humidity;BMP_temperature;BMP_pressure;BME280_temperature;BME280_humidity;BME280_pressure;Samples;Min_cycle;Max_cycle;Signal;HPM_P1;HPM_P2
2022/04/19 00:02:12;;;;;;;8.05;5.07;;;7.90;99.90;;;;;;5069790;28;20810;-62
2022/04/19 00:04:39;;;;;;;11.82;5.68;;;7.90;99.90;;;;;;5065441;28;20052;-66
2022/04/19 00:07:09;;;;;;;17.05;5.13;;;7.80;99.90;;;;;;5068354;28;20055;-65
2022/04/19 00:09:37;;;;;;;15.90;5.60;;;7.90;99.90;;;;;;5069622;28;20052;-62
2022/04/19 00:12:05;;;;;;;11.32;5.00;;;7.90;99.90;;;;;;5066858;28;20071;-61
2022/04/19 00:14:34;;;;;;;12.50;4.53;;;7.90;99.90;;;;;;5069949;28;20511;-64
2022/04/19 00:17:01;;;;;;;11.13;4.85;;;7.90;99.90;;;;;;5069500;28;20056;-62
2022/04/19 00:19:29;;;;;;;10.10;4.80;;;7.90;99.90;;;;;;5053822;28;20067;-62
2022/04/19 00:21:56;;;;;;;15.23;5.55;;;7.90;99.90;;;;;;5049757;28;20619;-61
2022/04/19 00:24:24;;;;;;;15.20;5.22;;;7.90;99.90;;;;;;5049875;28;20049;-61
2022/04/19 00:26:52;;;;;;;12.13;5.70;;;7.90;99.90;;;;;;5049817;28;20424;-61
2022/04/19 00:29:20;;;;;;;14.55;5.47;;;7.90;99.90;;;;;;5048632;28;20037;-61
2022/04/19 00:31:47;;;;;;;11.52;5.00;;;8.00;99.90;;;;;;5049218;28;20048;-62
2022/04/19 00:34:16;;;;;;;14.63;5.43;;;7.90;99.90;;;;;;5060365;28;20861;-61
2022/04/19 00:36:43;;;;;;;10.77;5.53;;;8.00;99.90;;;;;;5053522;28;20052;-61
2022/04/19 00:39:11;;;;;;;9.45;5.43;;;7.90;99.90;;;;;;5066472;28;20044;-61
2022/04/19 00:41:38;;;;;;;11.35;4.95;;;7.90;99.90;;;;;;5071642;28;20048;-62
2022/04/19 00:44:07;;;;;;;12.70;5.78;;;7.90;99.90;;;;;;5057034;28;20040;-62
2022/04/19 00:46:35;;;;;;;9.17;5.33;;;7.80;99.90;;;;;;5072147;28;20059;-62
2022/04/19 00:49:03;;;;;;;11.63;5.10;;;7.70;99.90;;;;;;5067486;28;20037;-60
2022/04/19 00:51:32;;;;;;;14.85;5.68;;;7.60;99.90;;;;;;5052189;28;20382;-61
2022/04/19 00:54:01;;;;;;;11.77;5.40;;;7.50;99.90;;;;;;5053417;28;20053;-62
2022/04/19 00:56:29;;;;;;;12.65;4.95;;;7.50;99.90;;;;;;5055314;28;20045;-62
2022/04/19 00:58:58;;;;;;;10.15;5.32;;;7.40;99.90;;;;;;5071799;28;20048;-62
2022/04/19 01:01:27;;;;;;;13.93;5.68;;;7.30;99.90;;;;;;5071397;28;20388;-61
2022/04/19 01:03:58;;;;;;;;;;;7.20;99.90;;;;;;5056563;28;20049;-61
2022/04/19 01:06:26;;;;;;;10.27;4.80;;;7.10;99.90;;;;;;5048957;28;19921;-62
2022/04/19 01:08:55;;;;;;;12.95;4.82;;;7.10;99.90;;;;;;5062667;28;20048;-64
2022/04/19 01:14:12;;;;;;;13.25;5.90;;;7.00;99.90;;;;;;5071348;28;20063;-61
2022/04/19 01:16:41;;;;;;;13.13;5.95;;;6.90;99.90;;;;;;5070642;28;20040;-61
2022/04/19 01:19:15;;;;;;;18.38;6.40;;;6.90;99.90;;;;;;5060146;28;20050;-61
2022/04/19 01:21:49;;;;;;;12.63;6.03;;;6.80;99.90;;;;;;5051585;28;20052;-61
2022/04/19 01:24:39;;;;;;;15.38;6.20;;;6.70;99.90;;;;;;5051464;28;20052;-61
2022/04/19 01:27:08;;;;;;;14.13;5.35;;;6.70;99.90;;;;;;5051199;28;20503;-61
2022/04/19 01:29:37;;;;;;;14.23;5.20;;;6.60;99.90;;;;;;5070076;28;20037;-64
2022/04/19 01:32:12;;;;;;;17.48;5.05;;;6.60;99.90;;;;;;5063762;28;20488;-66
2022/04/19 01:34:39;;;;;;;10.50;4.95;;;6.60;99.90;;;;;;5052790;28;20063;-64
2022/04/19 01:37:15;;;;;;;11.93;4.95;;;6.50;99.90;;;;;;5045382;28;20515;-65
2022/04/19 01:42:33;;;;;;;13.57;4.90;;;6.40;99.90;;;;;;5072366;28;20055;-67
2022/04/19 01:45:03;;;;;;;10.63;4.28;;;6.40;99.90;;;;;;5062139;28;20048;-62
2022/04/19 01:47:31;;;;;;;11.75;4.47;;;6.30;99.90;;;;;;5051634;28;20057;-62
2022/04/19 01:50:00;;;;;;;9.05;4.63;;;6.30;99.90;;;;;;5035933;28;20045;-62
2022/04/19 01:52:30;;;;;;;11.97;5.00;;;6.20;99.90;;;;;;5053694;28;20041;-63
2022/04/19 01:55:00;;;;;;;12.05;5.80;;;6.20;99.90;;;;;;5072559;28;20052;-61
2022/04/19 01:57:33;;;;;;;6.85;3.80;;;6.20;99.90;;;;;;5071831;28;20044;-62
2022/04/19 02:00:05;;;;;;;13.27;4.60;;;6.10;99.90;;;;;;5073553;28;20052;-62
2022/04/19 02:02:47;;;;;;;9.73;4.25;;;6.10;99.90;;;;;;5065232;28;20045;-64
2022/04/19 02:05:22;;;;;;;12.15;4.03;;;6.10;99.90;;;;;;5051884;28;20036;-68
2022/04/19 02:07:49;;;;;;;7.00;4.07;;;6.00;99.90;;;;;;5052269;28;20045;-69
2022/04/19 02:10:19;;;;;;;8.45;4.25;;;6.00;99.90;;;;;;5052122;28;20048;-66
2022/04/19 02:12:51;;;;;;;11.98;4.70;;;6.00;99.90;;;;;;5051722;28;20045;-67
2022/04/19 02:15:37;;;;;;;8.07;3.90;;;5.90;99.90;;;;;;5054641;28;20041;-68
2022/04/19 02:18:26;;;;;;;10.98;4.70;;;5.90;99.90;;;;;;5052208;28;20048;-66
2022/04/19 02:20:54;;;;;;;8.25;4.13;;;5.80;99.90;;;;;;5053375;28;20049;-66
2022/04/19 02:23:21;;;;;;;6.90;3.78;;;5.80;99.90;;;;;;5052457;28;20048;-66
2022/04/19 02:25:52;;;;;;;12.15;4.60;;;5.80;99.90;;;;;;5066280;28;20055;-63
2022/04/19 02:28:21;;;;;;;15.52;4.78;;;5.70;99.90;;;;;;5051692;28;20056;-65
2022/04/19 02:31:11;;;;;;;6.30;4.10;;;5.70;99.90;;;;;;5052794;28;20484;-61
2022/04/19 02:33:46;;;;;;;9.75;4.30;;;5.70;99.90;;;;;;5070463;28;20045;-65
2022/04/19 02:36:15;;;;;;;8.83;4.47;;;5.60;99.90;;;;;;5071724;28;20041;-67
2022/04/19 02:38:44;;;;;;;12.50;4.72;;;5.60;99.90;;;;;;5054962;28;20293;-67
2022/04/19 02:41:12;;;;;;;11.77;4.60;;;5.50;99.90;;;;;;5047520;28;20056;-63
2022/04/19 02:43:41;;;;;;;11.40;4.57;;;5.50;99.90;;;;;;5051530;28;20056;-62
2022/04/19 02:46:09;;;;;;;11.02;3.97;;;5.40;99.90;;;;;;5051606;28;20037;-61
2022/04/19 02:48:41;;;;;;;10.68;5.25;;;5.40;99.90;;;;;;5055348;28;20056;-61
2022/04/19 02:51:10;;;;;;;13.40;4.65;;;5.30;99.90;;;;;;5067991;28;20044;-64
2022/04/19 02:53:38;;;;;;;13.13;4.50;;;5.30;99.90;;;;;;5050941;28;20064;-61
2022/04/19 02:56:05;;;;;;;7.88;3.95;;;5.30;99.90;;;;;;5064582;28;20048;-61
2022/04/19 02:58:33;;;;;;;13.23;3.75;;;5.20;99.90;;;;;;5043571;28;20441;-61
2022/04/19 03:01:01;;;;;;;6.60;3.97;;;5.20;99.90;;;;;;5061192;28;20520;-61
2022/04/19 03:03:29;;;;;;;8.10;3.55;;;5.20;99.90;;;;;;5052468;28;20048;-61
2022/04/19 03:05:58;;;;;;;10.60;4.47;;;5.20;99.90;;;;;;5060202;28;20041;-62
2022/04/19 03:08:28;;;;;;;10.75;3.30;;;5.20;99.90;;;;;;5071214;28;20036;-62
2022/04/19 03:10:56;;;;;;;8.68;3.83;;;5.10;99.90;;;;;;5054417;28;20056;-65
2022/04/19 03:13:23;;;;;;;9.35;2.83;;;5.10;99.90;;;;;;5070763;28;20040;-62
2022/04/19 03:15:51;;;;;;;8.70;2.83;;;5.00;99.90;;;;;;5070901;28;20063;-62
2022/04/19 03:18:20;;;;;;;10.77;3.28;;;5.00;99.90;;;;;;5068676;28;20044;-60
2022/04/19 03:20:48;;;;;;;6.30;3.38;;;5.00;99.90;;;;;;5070888;28;20040;-62
2022/04/19 03:28:54;;;;;;;5.63;2.53;;;4.90;99.90;;;;;;5054823;28;20044;-65
2022/04/19 03:31:22;;;;;;;9.13;2.75;;;5.00;99.90;;;;;;5056967;28;20059;-62
2022/04/19 03:33:53;;;;;;;7.07;2.85;;;4.90;99.90;;;;;;5070509;28;20056;-62
2022/04/19 03:36:22;;;;;;;8.40;2.67;;;4.90;99.90;;;;;;5070598;28;20048;-62
2022/04/19 03:38:52;;;;;;;9.68;3.10;;;4.90;99.90;;;;;;5068701;28;20045;-64
2022/04/19 03:41:21;;;;;;;9.10;2.60;;;4.90;99.90;;;;;;5070580;28;20060;-63
2022/04/19 03:43:51;;;;;;;8.70;2.67;;;4.90;99.90;;;;;;5070345;28;20297;-63
2022/04/19 03:46:20;;;;;;;12.52;3.25;;;4.90;99.90;;;;;;5065697;28;20052;-62
2022/04/19 03:48:48;;;;;;;11.15;3.70;;;4.90;99.90;;;;;;5049974;28;20048;-67
2022/04/19 03:51:17;;;;;;;7.90;3.78;;;4.90;99.90;;;;;;5060686;28;20041;-63
2022/04/19 03:53:46;;;;;;;6.63;3.42;;;4.80;99.90;;;;;;5067672;28;20071;-63
2022/04/19 03:56:14;;;;;;;6.05;2.70;;;4.80;99.90;;;;;;5054128;28;20056;-67
2022/04/19 03:58:43;;;;;;;7.78;2.90;;;4.80;99.90;;;;;;5071616;28;20048;-63
2022/04/19 04:01:14;;;;;;;6.55;3.15;;;4.70;99.90;;;;;;5051629;28;20037;-67
2022/04/19 04:03:43;;;;;;;7.20;3.35;;;4.70;99.90;;;;;;5050443;28;20045;-66
2022/04/19 04:06:11;;;;;;;8.10;2.90;;;4.70;99.90;;;;;;5049715;28;20059;-64
2022/04/19 04:08:39;;;;;;;5.53;3.10;;;4.70;99.90;;;;;;5033587;28;20049;-65
2022/04/19 04:11:06;;;;;;;6.68;3.08;;;4.60;99.90;;;;;;5042004;28;20522;-65
2022/04/19 04:13:41;;;;;;;5.93;2.45;;;4.60;99.90;;;;;;5052991;28;20041;-63
2022/04/19 04:16:09;;;;;;;8.55;3.65;;;4.60;99.90;;;;;;5069781;28;20055;-62
2022/04/19 04:18:39;;;;;;;11.23;3.08;;;4.50;99.90;;;;;;5053615;28;20044;-69
2022/04/19 04:21:07;;;;;;;6.32;2.78;;;4.50;99.90;;;;;;5070221;28;20404;-64
2022/04/19 04:23:35;;;;;;;3.97;2.53;;;4.50;99.90;;;;;;5062757;28;20041;-63
2022/04/19 04:26:11;;;;;;;8.20;2.95;;;4.40;99.90;;;;;;5050235;28;20511;-63
2022/04/19 04:28:38;;;;;;;7.40;2.70;;;4.40;99.90;;;;;;5049614;28;20041;-66
2022/04/19 04:31:06;;;;;;;8.63;3.22;;;4.40;99.90;;;;;;5049772;28;20061;-66
2022/04/19 04:33:34;;;;;;;9.43;2.97;;;4.30;99.90;;;;;;5049964;28;20436;-69
2022/04/19 04:36:05;;;;;;;7.35;2.72;;;4.30;99.90;;;;;;5049998;28;20049;-67
2022/04/19 04:38:34;;;;;;;5.75;2.90;;;4.30;99.90;;;;;;5049514;28;20139;-66
2022/04/19 04:41:08;;;;;;;10.55;3.33;;;4.20;99.90;;;;;;5033487;28;20053;-63
2022/04/19 04:43:37;;;;;;;6.95;3.40;;;4.20;99.90;;;;;;5049964;28;20041;-67
2022/04/19 04:51:38;;;;;;;7.55;2.83;;;4.10;99.90;;;;;;5046460;28;20068;-69
2022/04/19 04:54:06;;;;;;;16.90;3.95;;;4.00;99.90;;;;;;5029954;28;20037;-64
2022/04/19 04:56:34;;;;;;;7.47;3.20;;;4.00;99.90;;;;;;5046471;28;20052;-63
2022/04/19 04:59:02;;;;;;;11.80;3.22;;;4.00;99.90;;;;;;5063328;28;20052;-63
2022/04/19 05:01:31;;;;;;;5.68;3.35;;;4.00;99.90;;;;;;5065576;28;20503;-63
2022/04/19 05:04:00;;;;;;;8.75;3.40;;;4.00;99.90;;;;;;5046941;28;20044;-63
2022/04/19 05:06:28;;;;;;;7.38;3.38;;;4.00;99.90;;;;;;5044752;28;20389;-61
2022/04/19 05:08:55;;;;;;;9.20;3.28;;;4.00;99.90;;;;;;5062722;28;20041;-61
2022/04/19 05:11:23;;;;;;;9.60;3.20;;;3.90;99.90;;;;;;5051024;28;20060;-62
2022/04/19 05:13:52;;;;;;;8.65;3.22;;;3.90;99.90;;;;;;5067763;28;20399;-63
2022/04/19 05:16:20;;;;;;;9.68;2.88;;;3.90;99.90;;;;;;5066697;28;20051;-61
2022/04/19 05:18:48;;;;;;;11.20;3.28;;;4.00;99.90;;;;;;5061465;28;20048;-62
2022/04/19 05:21:15;;;;;;;14.38;3.20;;;3.90;99.90;;;;;;5048497;28;20049;-62
2022/04/19 05:23:46;;;;;;;11.63;3.38;;;3.90;99.90;;;;;;5048417;28;20040;-65
2022/04/19 05:26:19;;;;;;;20.55;4.28;;;3.90;99.90;;;;;;5048499;28;20056;-63
2022/04/19 05:28:47;;;;;;;8.45;3.20;;;3.90;99.90;;;;;;5062382;28;20052;-62
2022/04/19 05:31:16;;;;;;;7.40;3.67;;;3.90;99.90;;;;;;5051382;28;20208;-62
2022/04/19 05:33:46;;;;;;;7.93;3.47;;;3.90;99.90;;;;;;5064472;28;20505;-62
2022/04/19 05:36:15;;;;;;;9.60;4.35;;;3.90;99.90;;;;;;5049461;28;20045;-62
2022/04/19 05:38:43;;;;;;;9.27;3.40;;;3.90;99.90;;;;;;5054525;28;20041;-62
2022/04/19 05:41:13;;;;;;;10.93;3.53;;;3.90;99.90;;;;;;5071237;28;20039;-62
2022/04/19 05:43:41;;;;;;;20.73;4.15;;;3.80;99.90;;;;;;5054258;28;20052;-62
2022/04/19 05:46:09;;;;;;;8.38;2.83;;;3.90;99.90;;;;;;5071240;28;20047;-63
2022/04/19 05:48:37;;;;;;;11.30;3.55;;;3.90;99.90;;;;;;5066889;28;20037;-62
2022/04/19 05:51:04;;;;;;;10.40;3.80;;;4.00;99.90;;;;;;5051057;28;20055;-62
2022/04/19 05:53:32;;;;;;;10.95;3.60;;;4.00;99.90;;;;;;5051036;28;20041;-63
2022/04/19 05:56:00;;;;;;;9.80;3.42;;;4.00;99.90;;;;;;5050821;28;20049;-63
2022/04/19 05:58:28;;;;;;;9.35;3.63;;;4.10;99.90;;;;;;5054270;28;20051;-63
2022/04/19 06:00:56;;;;;;;14.30;3.40;;;4.10;99.90;;;;;;5072133;28;20059;-64
2022/04/19 06:06:28;;;;;;;15.27;3.40;;;4.20;99.90;;;;;;5036498;28;20223;-61
2022/04/19 06:08:56;;;;;;;8.55;3.40;;;4.30;99.90;;;;;;5049104;28;20049;-65
2022/04/19 06:11:24;;;;;;;8.40;3.28;;;4.30;99.90;;;;;;5070531;28;20048;-63
2022/04/19 06:13:51;;;;;;;9.73;3.70;;;4.40;99.90;;;;;;5069282;28;20045;-64
2022/04/19 06:16:20;;;;;;;12.30;3.03;;;4.40;99.90;;;;;;5063326;28;20055;-66
2022/04/19 06:18:52;;;;;;;11.07;3.60;;;4.50;99.90;;;;;;5058321;28;20059;-65
2022/04/19 06:21:24;;;;;;;12.18;3.70;;;4.50;99.90;;;;;;5047127;28;20045;-63
2022/04/19 06:23:52;;;;;;;8.10;3.33;;;4.60;99.90;;;;;;5048313;28;20044;-63
2022/04/19 06:26:19;;;;;;;10.32;3.50;;;4.70;99.90;;;;;;5050264;28;20049;-68
2022/04/19 06:28:50;;;;;;;9.23;3.78;;;4.80;99.90;;;;;;5060482;28;20041;-63
2022/04/19 06:31:18;;;;;;;11.48;4.10;;;4.90;99.90;;;;;;5048235;28;20059;-65
2022/04/19 06:34:01;;;;;;;11.45;4.60;;;4.90;99.90;;;;;;5051076;28;20481;-63
2022/04/19 06:36:44;;;;;;;11.50;4.05;;;5.00;99.90;;;;;;5055779;28;20040;-62
2022/04/19 06:39:12;;;;;;;15.05;4.43;;;5.10;99.90;;;;;;5055952;28;20037;-62
2022/04/19 06:41:43;;;;;;;20.13;5.13;;;5.20;99.90;;;;;;5049776;28;20049;-62
2022/04/19 06:44:12;;;;;;;13.93;5.13;;;5.30;99.90;;;;;;5068007;28;20052;-61
2022/04/19 06:46:40;;;;;;;12.98;5.15;;;5.40;99.90;;;;;;5049786;28;20049;-62
2022/04/19 06:49:12;;;;;;;11.20;4.25;;;5.50;99.90;;;;;;5058403;28;20045;-63
2022/04/19 06:51:40;;;;;;;21.13;7.35;;;5.60;99.90;;;;;;5048972;28;20041;-62
2022/04/19 06:54:15;;;;;;;13.68;5.38;;;5.80;99.90;;;;;;5053819;28;20056;-62
2022/04/19 06:56:50;;;;;;;14.00;5.80;;;5.80;99.90;;;;;;5049744;28;20051;-62
2022/04/19 06:59:18;;;;;;;12.07;5.47;;;5.90;99.90;;;;;;5067865;28;20059;-62
2022/04/19 07:01:45;;;;;;;11.40;5.20;;;6.00;99.90;;;;;;5061047;28;20047;-62
2022/04/19 07:04:33;;;;;;;17.80;5.47;;;6.10;99.90;;;;;;5033968;28;20056;-61
2022/04/19 07:07:06;;;;;;;10.70;5.03;;;6.30;99.90;;;;;;5053836;28;20044;-61
2022/04/19 07:09:35;;;;;;;14.55;4.97;;;6.30;99.90;;;;;;5054835;28;20044;-61
2022/04/19 07:12:03;;;;;;;15.25;5.57;;;6.50;99.90;;;;;;5062491;28;20047;-63
2022/04/19 07:14:36;;;;;;;14.43;5.68;;;6.50;99.90;;;;;;5049692;28;20041;-64
2022/04/19 07:17:09;;;;;;;12.55;5.60;;;6.60;99.90;;;;;;5062388;28;20045;-63
2022/04/19 07:28:04;;;;;;;18.35;6.82;;;7.00;99.90;;;;;;5067175;28;20181;-61
2022/04/19 07:30:43;;;;;;;15.85;7.20;;;7.10;99.90;;;;;;5048871;28;20048;-61
2022/04/19 07:33:13;;;;;;;16.55;6.72;;;7.20;99.90;;;;;;5060605;28;20045;-63
2022/04/19 07:35:43;;;;;;;23.73;8.23;;;7.30;99.90;;;;;;5054223;28;20041;-61
2022/04/19 07:38:12;;;;;;;21.63;7.60;;;7.40;99.90;;;;;;5059869;28;20131;-60
2022/04/19 07:40:58;;;;;;;16.38;7.60;;;7.50;99.90;;;;;;5069077;28;20511;-62
2022/04/19 07:43:26;;;;;;;15.27;8.00;;;7.60;99.90;;;;;;5068471;28;20047;-61
2022/04/19 07:45:54;;;;;;;21.10;7.43;;;7.70;99.90;;;;;;5070073;28;20040;-62
2022/04/19 07:48:22;;;;;;;18.15;7.95;;;7.80;99.90;;;;;;5070028;28;20480;-62
2022/04/19 07:50:50;;;;;;;19.67;8.30;;;7.90;99.90;;;;;;5068187;28;20044;-61
2022/04/19 07:53:18;;;;;;;25.08;8.32;;;8.00;99.90;;;;;;5051032;28;20037;-61
2022/04/19 07:55:45;;;;;;;16.02;8.23;;;8.10;99.90;;;;;;5048439;28;20049;-64
2022/04/19 07:58:13;;;;;;;19.00;8.90;;;8.20;99.90;;;;;;5057797;28;20048;-61
2022/04/19 08:00:42;;;;;;;25.40;9.50;;;8.30;99.90;;;;;;5068722;28;20040;-61
2022/04/19 08:03:10;;;;;;;20.52;9.10;;;8.40;99.90;;;;;;5054889;28;20044;-62
2022/04/19 08:05:39;;;;;;;19.00;8.98;;;8.40;99.90;;;;;;5061134;28;20060;-62
2022/04/19 08:08:07;;;;;;;16.75;8.32;;;8.50;99.90;;;;;;5053069;28;20048;-61
2022/04/19 08:10:35;;;;;;;21.33;9.38;;;8.50;99.90;;;;;;5064557;28;20053;-62
2022/04/19 08:13:06;;;;;;;24.33;9.43;;;8.60;99.90;;;;;;5048341;28;20045;-61
2022/04/19 08:15:34;;;;;;;17.65;8.45;;;8.60;99.90;;;;;;5049692;28;20493;-61
2022/04/19 08:18:13;;;;;;;15.77;8.13;;;8.70;99.90;;;;;;5056822;28;20392;-63
2022/04/19 08:20:45;;;;;;;23.23;7.93;;;8.70;99.90;;;;;;5065386;28;20127;-61
2022/04/19 08:23:13;;;;;;;16.23;7.72;;;8.80;99.90;;;;;;5056623;28;20535;-61
2022/04/19 08:25:44;;;;;;;12.93;7.38;;;8.90;99.90;;;;;;5044736;28;20048;-62
2022/04/19 08:28:12;;;;;;;15.45;7.28;;;8.90;99.90;;;;;;5051715;28;20049;-60
2022/04/19 08:30:40;;;;;;;18.63;9.30;;;9.00;99.90;;;;;;5049740;28;20048;-61
2022/04/19 08:33:11;;;;;;;18.63;7.40;;;8.90;99.90;;;;;;5073027;28;20037;-63
2022/04/19 08:35:38;;;;;;;23.65;7.75;;;9.00;99.90;;;;;;5052129;28;20037;-61
2022/04/19 08:38:07;;;;;;;15.80;6.88;;;9.00;99.90;;;;;;5057364;28;20048;-61
2022/04/19 08:40:35;;;;;;;15.50;7.13;;;9.10;99.90;;;;;;5064565;28;20040;-61
2022/04/19 08:43:05;;;;;;;17.98;6.57;;;9.20;99.90;;;;;;5047722;28;20045;-61
2022/04/19 08:45:33;;;;;;;11.88;6.63;;;9.20;99.90;;;;;;5047512;28;20053;-61
2022/04/19 08:48:04;;;;;;;13.85;6.25;;;9.40;99.90;;;;;;5053547;28;20044;-61
2022/04/19 08:50:32;;;;;;;13.68;5.97;;;9.50;99.90;;;;;;5058364;28;20047;-61
2022/04/19 08:58:32;;;;;;;16.65;6.15;;;9.90;99.90;;;;;;5063237;28;20048;-61
2022/04/19 09:01:00;;;;;;;11.43;5.72;;;10.00;99.90;;;;;;5059247;28;20041;-61
2022/04/19 09:03:28;;;;;;;9.75;5.43;;;10.10;99.90;;;;;;5055390;28;20045;-61
2022/04/19 09:05:55;;;;;;;10.15;4.90;;;10.30;99.90;;;;;;5052673;28;20049;-61
2022/04/19 09:08:23;;;;;;;11.27;4.43;;;10.40;99.90;;;;;;5062122;28;20492;-61
2022/04/19 09:11:06;;;;;;;11.18;4.90;;;10.60;99.90;;;;;;5068180;28;20511;-64
2022/04/19 09:13:36;;;;;;;10.70;4.38;;;10.70;99.90;;;;;;5059897;28;20492;-63
2022/04/19 09:16:06;;;;;;;8.07;4.60;;;10.80;99.90;;;;;;5040320;28;20049;-66
2022/04/19 09:18:37;;;;;;;9.43;6.30;;;11.00;99.90;;;;;;5058403;28;20051;-65
2022/04/19 09:21:06;;;;;;;11.48;5.63;;;11.00;99.90;;;;;;5053453;28;20055;-64
2022/04/19 09:23:35;;;;;;;11.93;5.57;;;11.20;99.90;;;;;;5053742;28;20055;-63
2022/04/19 09:26:09;;;;;;;11.85;4.70;;;11.30;99.90;;;;;;5054354;28;20425;-64
2022/04/19 09:28:38;;;;;;;13.05;5.53;;;11.40;99.90;;;;;;5064652;28;20049;-64
2022/04/19 09:31:11;;;;;;;12.32;5.22;;;11.40;99.90;;;;;;5067413;28;20045;-61
2022/04/19 09:33:39;;;;;;;14.18;5.50;;;11.50;99.90;;;;;;5058506;28;20045;-60
2022/04/19 09:36:07;;;;;;;13.55;5.30;;;11.50;99.90;;;;;;5053794;28;20388;-64
2022/04/19 09:38:44;;;;;;;11.13;4.70;;;11.60;99.90;;;;;;5062881;28;20063;-61
2022/04/19 09:41:15;;;;;;;10.57;6.00;;;11.70;99.90;;;;;;5069398;28;20052;-60
2022/04/19 09:44:09;;;;;;;14.82;4.20;;;11.80;99.90;;;;;;5051168;28;20056;-63
2022/04/19 09:46:38;;;;;;;13.32;4.43;;;11.90;99.90;;;;;;5052157;28;20048;-62
2022/04/19 09:49:06;;;;;;;18.55;6.72;;;12.00;99.90;;;;;;5057641;28;20053;-63
2022/04/19 09:51:36;;;;;;;12.07;3.50;;;12.00;99.90;;;;;;5052056;28;20045;-62
2022/04/19 09:54:04;;;;;;;8.05;3.80;;;12.10;99.90;;;;;;5055052;28;20045;-63
2022/04/19 09:56:36;;;;;;;8.50;3.50;;;12.30;99.90;;;;;;5060023;28;20067;-62
2022/04/19 09:59:17;;;;;;;9.40;3.35;;;12.40;99.90;;;;;;5057473;28;20041;-62
2022/04/19 10:10:08;;;;;;;9.27;3.45;;;12.90;99.90;;;;;;5051702;28;20052;-60
2022/04/19 10:12:36;;;;;;;8.85;3.28;;;13.00;99.90;;;;;;5053385;28;20044;-61
2022/04/19 10:15:06;;;;;;;11.35;3.35;;;13.10;99.90;;;;;;5049731;28;20044;-61
2022/04/19 10:17:36;;;;;;;9.27;3.90;;;13.00;99.90;;;;;;5058587;28;20380;-60
2022/04/19 10:20:05;;;;;;;10.30;3.40;;;13.00;99.90;;;;;;5062428;28;20040;-60
2022/04/19 10:22:33;;;;;;;9.48;4.03;;;13.10;99.90;;;;;;5065793;28;20056;-60
2022/04/19 10:25:03;;;;;;;11.32;3.53;;;13.10;99.90;;;;;;5066243;28;20048;-60
2022/04/19 10:27:32;;;;;;;10.68;3.97;;;13.10;99.90;;;;;;5064590;28;20491;-60
2022/04/19 10:30:03;;;;;;;12.70;3.30;;;13.10;99.90;;;;;;5063485;28;20048;-61
2022/04/19 10:32:35;;;;;;;10.10;3.05;;;13.00;99.90;;;;;;5055822;28;20438;-60
2022/04/19 10:35:04;;;;;;;8.85;3.17;;;13.00;99.90;;;;;;5056759;28;20487;-60
2022/04/19 10:37:32;;;;;;;14.73;2.92;;;12.90;99.90;;;;;;5051101;28;21198;-62
2022/04/19 10:40:05;;;;;;;12.77;3.30;;;13.00;99.90;;;;;;5057025;28;20396;-60
2022/04/19 10:42:37;;;;;;;12.57;3.08;;;13.10;99.90;;;;;;5048022;28;20080;-60
2022/04/19 10:45:15;;;;;;;11.43;3.15;;;13.20;99.90;;;;;;5047837;28;20400;-60
2022/04/19 10:47:51;;;;;;;10.50;2.78;;;13.20;99.90;;;;;;5057729;28;20408;-60
2022/04/19 10:50:28;;;;;;;8.68;1.70;;;13.20;99.90;;;;;;5048141;28;20060;-61
2022/04/19 10:53:00;;;;;;;6.78;2.15;;;13.20;99.90;;;;;;5049583;28;20415;-60
2022/04/19 10:55:30;;;;;;;5.15;2.20;;;13.20;99.90;;;;;;5060654;28;20103;-60
2022/04/19 10:58:09;;;;;;;9.88;2.10;;;13.20;99.90;;;;;;5047651;28;20052;-66
2022/04/19 11:00:40;;;;;;;4.55;2.50;;;13.30;99.90;;;;;;5068747;28;20059;-66
2022/04/19 11:03:33;;;;;;;6.72;1.95;;;13.30;99.90;;;;;;5055308;28;20040;-67
2022/04/19 11:06:04;;;;;;;2.88;1.60;;;13.40;99.90;;;;;;5056656;28;20048;-65
2022/04/19 11:08:37;;;;;;;4.03;1.92;;;13.40;99.90;;;;;;5056012;28;20396;-65
2022/04/19 11:11:31;;;;;;;7.50;2.67;;;13.40;99.90;;;;;;5049769;28;20380;-65
2022/04/19 11:14:19;;;;;;;3.88;1.63;;;13.50;99.90;;;;;;5050323;28;20538;-63
2022/04/19 11:16:51;;;;;;;9.50;2.15;;;13.60;99.90;;;;;;5048875;28;20045;-62
2022/04/19 11:19:25;;;;;;;6.68;1.80;;;13.70;99.90;;;;;;5068071;28;20415;-62
2022/04/19 11:21:54;;;;;;;8.38;2.22;;;13.80;99.90;;;;;;5059040;28;20588;-60
2022/04/19 11:25:01;;;;;;;5.13;2.92;;;13.90;99.90;;;;;;5048985;28;20041;-61
2022/04/19 11:27:53;;;;;;;3.72;1.85;;;14.00;99.90;;;;;;5048814;28;20052;-63
2022/04/19 11:30:22;;;;;;;5.43;2.00;;;14.00;99.90;;;;;;5054689;28;20033;-65
2022/04/19 11:32:52;;;;;;;5.22;1.98;;;14.00;99.90;;;;;;5061421;28;20037;-61
2022/04/19 11:35:20;;;;;;;5.55;2.00;;;14.00;99.90;;;;;;5048440;28;20480;-63
2022/04/19 11:37:48;;;;;;;6.45;1.70;;;14.10;99.90;;;;;;5052054;28;20055;-63
2022/04/19 11:48:45;;;;;;;9.68;1.70;;;15.30;99.90;;;;;;5069653;28;20055;-62
2022/04/19 11:51:14;;;;;;;4.68;1.63;;;15.60;99.90;;;;;;5061294;28;20045;-62
2022/04/19 11:53:43;;;;;;;8.43;2.85;;;15.80;99.50;;;;;;5050916;28;20053;-62
2022/04/19 11:56:10;;;;;;;6.32;2.45;;;15.80;96.90;;;;;;5049381;28;20048;-63
2022/04/19 11:58:41;;;;;;;10.18;2.30;;;15.60;96.70;;;;;;5054667;28;20392;-62
2022/04/19 12:01:10;;;;;;;13.50;2.00;;;15.40;96.70;;;;;;5048960;28;20037;-64
2022/04/19 12:03:39;;;;;;;7.93;2.15;;;15.20;96.90;;;;;;5049454;28;20049;-61
2022/04/19 12:06:12;;;;;;;7.28;1.95;;;15.00;97.40;;;;;;5050903;28;20064;-62
2022/04/19 12:08:53;;;;;;;6.45;2.10;;;14.90;97.20;;;;;;5061240;28;20056;-63
2022/04/19 12:11:24;;;;;;;6.85;2.00;;;14.80;97.20;;;;;;5066760;28;20036;-63
2022/04/19 12:13:53;;;;;;;6.30;1.80;;;14.60;97.50;;;;;;5062430;28;20049;-64
2022/04/19 12:16:31;;;;;;;4.53;1.60;;;14.60;97.60;;;;;;5048695;28;20611;-62
2022/04/19 12:19:04;;;;;;;8.23;2.10;;;14.60;97.90;;;;;;5065604;28;20404;-63
2022/04/19 12:21:38;;;;;;;8.70;1.70;;;14.60;97.30;;;;;;5057414;28;20056;-64
2022/04/19 12:24:20;;;;;;;10.02;2.55;;;14.60;96.80;;;;;;5049207;28;20060;-62
2022/04/19 12:27:06;;;;;;;1.88;1.27;;;14.50;97.10;;;;;;5049107;28;20045;-67
2022/04/19 12:29:35;;;;;;;8.35;2.45;;;14.50;97.10;;;;;;5061159;28;20049;-63
2022/04/19 12:32:05;;;;;;;8.68;1.60;;;14.50;96.80;;;;;;5053648;28;20053;-62
2022/04/19 12:34:37;;;;;;;9.93;2.17;;;14.40;97.20;;;;;;5057665;28;20045;-61
2022/04/19 12:37:12;;;;;;;5.35;2.10;;;14.30;97.60;;;;;;5052576;28;20040;-62
2022/04/19 12:39:40;;;;;;;9.15;2.20;;;14.20;97.50;;;;;;5062815;28;20052;-61
2022/04/19 12:42:11;;;;;;;5.70;1.90;;;14.10;97.10;;;;;;5055369;28;20048;-61
2022/04/19 12:45:01;;;;;;;5.75;1.92;;;14.10;97.40;;;;;;5062186;28;20048;-62
2022/04/19 12:47:29;;;;;;;;;;;14.00;97.90;;;;;;5072148;28;20036;-61
2022/04/19 12:49:57;;;;;;;2.75;1.55;;;13.90;97.40;;;;;;5070523;28;19924;-61
2022/04/19 12:52:32;;;;;;;4.93;1.88;;;13.90;97.60;;;;;;5060766;28;20052;-60
2022/04/19 12:55:01;;;;;;;7.07;1.75;;;13.90;97.80;;;;;;5066985;28;20056;-60
2022/04/19 12:57:29;;;;;;;4.00;1.70;;;13.90;97.60;;;;;;5053922;28;20045;-62
2022/04/19 12:59:57;;;;;;;7.00;2.10;;;13.80;97.30;;;;;;5045389;28;20056;-61
2022/04/19 13:02:25;;;;;;;9.05;2.35;;;13.80;97.50;;;;;;5052178;28;20041;-61
2022/04/19 13:04:57;;;;;;;11.02;3.08;;;13.80;97.10;;;;;;5050757;28;20049;-61
2022/04/19 13:13:06;;;;;;;9.70;1.90;;;13.60;97.50;;;;;;5053269;28;20060;-60
2022/04/19 13:15:38;;;;;;;10.15;2.55;;;13.60;97.50;;;;;;5050928;28;20045;-60
2022/04/19 13:18:06;;;;;;;11.48;2.30;;;13.60;97.60;;;;;;5055904;28;20033;-60
2022/04/19 13:20:33;;;;;;;6.57;2.30;;;13.40;97.90;;;;;;5052888;28;20515;-62
2022/04/19 13:23:01;;;;;;;9.38;2.45;;;13.60;97.90;;;;;;5050792;28;20032;-60
2022/04/19 13:25:29;;;;;;;8.40;2.38;;;13.60;98.00;;;;;;5052703;28;20041;-62
2022/04/19 13:27:57;;;;;;;11.05;1.90;;;13.60;98.20;;;;;;5058515;28;20048;-62
2022/04/19 13:30:25;;;;;;;9.15;2.30;;;13.60;98.10;;;;;;5054134;28;20044;-61
2022/04/19 13:32:53;;;;;;;9.85;1.95;;;13.60;98.30;;;;;;5051555;28;20045;-62
2022/04/19 13:35:20;;;;;;;14.93;2.47;;;13.60;98.20;;;;;;5059308;28;20044;-62
2022/04/19 13:40:35;;;;;;;12.20;2.53;;;13.70;98.50;;;;;;5051931;28;20051;-63
2022/04/19 13:43:02;;;;;;;5.95;2.40;;;13.70;98.50;;;;;;5050322;28;20053;-62
2022/04/19 13:45:33;;;;;;;6.38;1.77;;;13.70;98.40;;;;;;5055764;28;20047;-61
2022/04/19 13:48:01;;;;;;;4.90;2.40;;;13.70;97.90;;;;;;5066149;28;20060;-62
2022/04/19 13:50:29;;;;;;;10.82;3.55;;;13.80;97.90;;;;;;5050767;28;20049;-62
2022/04/19 13:52:57;;;;;;;8.20;2.25;;;13.80;97.80;;;;;;5052361;28;20041;-61
2022/04/19 13:55:25;;;;;;;7.35;2.00;;;13.70;97.80;;;;;;5068889;28;20040;-61
2022/04/19 13:57:54;;;;;;;6.22;1.92;;;13.80;97.90;;;;;;5054616;28;20041;-61
2022/04/19 14:00:23;;;;;;;6.47;2.00;;;13.80;98.00;;;;;;5065927;28;20056;-61
2022/04/19 14:02:51;;;;;;;9.40;2.47;;;13.80;98.00;;;;;;5062982;28;20041;-63
2022/04/19 14:05:20;;;;;;;7.32;2.08;;;13.80;97.90;;;;;;5064642;28;20063;-62